Chisholm, Minnesota
Current Conditions -  °F | °C
As of 7:53 AM on Tuesday 27 Jan 2015 (Local Time) from KHIB Reporting Station
Overcast Overcast  
Wind Chill: 25°   Ceiling: 600
Heat Index: 25°   Visibility: 10mi
Dew Point: 21°   Wind: 3mph
Humidity: 85%   Direction: 150°SSE
Pressure: 30.09"   Gusts: NA
Location:  47.49°N, 92.88°W
Report Text: KHIB 271353Z AUTO 15003KT 10SM OVC006 M04/M06 A3009 RMK AO2 SLP212 T10391061
Loading
Personal Weather Stations






























Interactive Weather Map New forecast layout! Learn more

10-Day Weather Forecast

Advertisements
Track Severe Weather on mobile